createdAt,value
2019-05-10T00:01:16.968Z,13.23
2019-05-10T00:04:20.521Z,10.27
2019-05-10T00:07:23.963Z,13.47
2019-05-10T00:10:08.927Z,14.83
2019-05-10T00:13:09.306Z,13.13
2019-05-10T00:15:55.442Z,16.93
2019-05-10T00:18:41.746Z,10.67
2019-05-10T00:21:27.979Z,9.37
2019-05-10T00:24:14.217Z,12.00
2019-05-10T00:27:00.379Z,8.57
2019-05-10T00:29:46.406Z,9.03
2019-05-10T00:32:32.370Z,8.60
2019-05-10T00:35:19.533Z,7.53
2019-05-10T00:38:05.519Z,10.13
2019-05-10T00:40:51.508Z,11.23
2019-05-10T00:43:37.465Z,11.00
2019-05-10T00:46:23.441Z,8.47
2019-05-10T00:49:09.492Z,6.50
2019-05-10T00:51:55.845Z,8.47
2019-05-10T00:54:42.125Z,11.77
2019-05-10T00:57:28.110Z,8.10
2019-05-10T01:00:14.905Z,12.07
2019-05-10T01:03:01.108Z,8.63
2019-05-10T01:05:47.085Z,8.13
2019-05-10T01:08:36.411Z,6.73
2019-05-10T01:11:22.388Z,7.47
2019-05-10T01:14:08.890Z,9.20
2019-05-10T01:16:54.986Z,9.30
2019-05-10T01:19:41.243Z,8.93
2019-05-10T01:22:27.124Z,8.93
2019-05-10T01:25:13.133Z,7.20
2019-05-10T01:27:59.358Z,11.67
2019-05-10T01:30:45.364Z,9.00
2019-05-10T01:33:35.074Z,8.67
2019-05-10T01:36:21.383Z,10.93
2019-05-10T01:39:07.695Z,7.87
2019-05-10T01:41:54.068Z,14.03
2019-05-10T01:44:40.036Z,7.33
2019-05-10T01:47:28.383Z,7.03
2019-05-10T01:50:14.277Z,8.63
2019-05-10T01:53:00.392Z,6.97
2019-05-10T01:55:52.047Z,11.30
2019-05-10T01:58:36.617Z,9.03
2019-05-10T02:01:22.580Z,7.67
2019-05-10T02:04:08.784Z,7.90
2019-05-10T02:06:55.523Z,6.33
2019-05-10T02:09:41.438Z,7.73
2019-05-10T02:12:27.885Z,7.30
2019-05-10T02:15:14.110Z,8.03
2019-05-10T02:18:00.107Z,6.33
2019-05-10T02:20:48.458Z,9.63
2019-05-10T02:23:34.305Z,8.37
2019-05-10T02:26:20.972Z,9.63
2019-05-10T02:29:09.878Z,8.83
2019-05-10T02:31:56.344Z,9.13
2019-05-10T02:34:42.472Z,8.70
2019-05-10T02:37:31.955Z,10.87
2019-05-10T02:40:18.220Z,7.80
2019-05-10T02:43:07.286Z,7.97
2019-05-10T02:45:53.235Z,7.50
2019-05-10T02:48:39.272Z,8.50
2019-05-10T02:51:25.197Z,12.60
2019-05-10T02:54:11.254Z,9.80
2019-05-10T02:57:00.219Z,8.83
2019-05-10T02:59:46.155Z,11.10
2019-05-10T03:02:39.652Z,7.70
2019-05-10T03:05:25.879Z,12.70
2019-05-10T03:08:12.484Z,8.00
2019-05-10T03:10:58.765Z,9.67
2019-05-10T03:13:44.573Z,12.10
2019-05-10T03:16:31.888Z,12.00
2019-05-10T03:19:17.916Z,10.70
2019-05-10T03:22:03.911Z,14.07
2019-05-10T03:24:52.241Z,10.90
2019-05-10T03:27:44.553Z,11.50
2019-05-10T03:30:30.758Z,8.40
2019-05-10T03:33:16.692Z,10.63
2019-05-10T03:36:02.823Z,13.77
2019-05-10T03:38:48.783Z,11.87
2019-05-10T03:41:34.881Z,12.50
2019-05-10T03:44:21.176Z,13.00
2019-05-10T03:47:07.393Z,15.20
2019-05-10T03:49:53.390Z,9.93
2019-05-10T03:52:39.712Z,10.50
2019-05-10T03:55:25.798Z,14.43
2019-05-10T03:58:12.166Z,12.27
2019-05-10T04:00:58.491Z,12.80
2019-05-10T04:03:44.768Z,13.83
2019-05-10T04:06:33.864Z,16.73
2019-05-10T04:09:19.894Z,13.20
2019-05-10T04:12:05.858Z,14.03
2019-05-10T04:14:51.924Z,16.47
2019-05-10T04:17:38.208Z,15.17
2019-05-10T04:20:24.522Z,14.87
2019-05-10T04:23:10.506Z,19.03
2019-05-10T04:25:56.512Z,17.60
2019-05-10T04:28:42.796Z,19.27
2019-05-10T04:31:28.807Z,16.33
2019-05-10T04:34:15.132Z,17.80
2019-05-10T04:37:01.155Z,21.43
2019-05-10T04:39:47.130Z,19.23
2019-05-10T04:42:33.096Z,19.40
2019-05-10T04:45:19.139Z,22.60
2019-05-10T04:48:05.237Z,16.90
2019-05-10T04:50:51.428Z,18.63
2019-05-10T04:53:37.460Z,21.43
2019-05-10T04:56:23.389Z,17.57
2019-05-10T04:59:09.708Z,17.73
2019-05-10T05:01:55.782Z,20.67
2019-05-10T05:04:41.868Z,20.27
2019-05-10T05:07:27.977Z,21.27
2019-05-10T05:10:14.156Z,19.83
2019-05-10T05:13:00.114Z,22.27
2019-05-10T05:15:46.116Z,19.60
2019-05-10T05:18:32.017Z,23.07
2019-05-10T05:21:18.091Z,20.20
2019-05-10T05:24:04.290Z,18.40
2019-05-10T05:26:53.342Z,21.83
2019-05-10T05:29:39.307Z,22.43
2019-05-10T05:32:25.548Z,21.13
2019-05-10T05:35:15.274Z,21.30
2019-05-10T05:38:00.481Z,19.77
2019-05-10T05:40:46.911Z,24.20
2019-05-10T05:43:32.953Z,19.83
2019-05-10T05:46:21.199Z,22.03
2019-05-10T05:49:07.569Z,23.00
2019-05-10T05:51:53.592Z,24.80
2019-05-10T05:54:39.555Z,24.83
2019-05-10T05:57:27.618Z,25.47
2019-05-10T06:00:16.047Z,32.00
2019-05-10T06:03:02.297Z,33.00
2019-05-10T06:05:48.703Z,35.60
2019-05-10T06:08:34.849Z,35.67
2019-05-10T06:11:20.786Z,40.47
2019-05-10T06:14:10.717Z,39.20
2019-05-10T06:16:54.817Z,38.70
2019-05-10T06:19:40.962Z,38.87
2019-05-10T06:22:27.254Z,39.03
2019-05-10T06:25:13.370Z,35.50
2019-05-10T06:27:59.636Z,36.73
2019-05-10T06:30:46.149Z,36.27
2019-05-10T06:33:32.273Z,31.03
2019-05-10T06:36:18.648Z,28.60
2019-05-10T06:39:05.226Z,28.13
2019-05-10T06:41:56.645Z,22.53
2019-05-10T06:44:39.561Z,22.50
2019-05-10T06:47:25.767Z,22.00
2019-05-10T06:50:11.873Z,23.80
2019-05-10T06:53:00.850Z,23.10
2019-05-10T06:55:45.880Z,28.33
2019-05-10T06:58:36.342Z,22.37
2019-05-10T07:01:23.251Z,25.07
2019-05-10T07:04:09.343Z,21.20
2019-05-10T07:06:55.293Z,24.90
2019-05-10T07:10:01.324Z,21.60
2019-05-10T07:12:30.308Z,20.57
2019-05-10T07:15:16.697Z,22.00
2019-05-10T07:18:02.638Z,23.33
2019-05-10T07:20:48.716Z,21.27
2019-05-10T07:23:39.140Z,26.43
2019-05-10T07:26:26.475Z,25.47
2019-05-10T07:29:11.259Z,21.63
2019-05-10T07:31:57.716Z,22.07
2019-05-10T07:34:48.808Z,25.40
2019-05-10T07:37:31.787Z,23.43
2019-05-10T07:40:17.929Z,26.70
2019-05-10T07:43:03.881Z,24.63
2019-05-10T07:45:49.777Z,24.23
2019-05-10T07:48:40.962Z,22.70
2019-05-10T07:51:28.856Z,27.27
2019-05-10T07:54:11.702Z,23.77
2019-05-10T07:56:57.838Z,24.77
2019-05-10T07:59:50.677Z,22.13
2019-05-10T08:02:32.261Z,21.17
2019-05-10T08:05:18.653Z,20.87
2019-05-10T08:08:04.724Z,21.03
2019-05-10T08:10:50.695Z,20.53
2019-05-10T08:13:39.358Z,22.23
2019-05-10T08:16:25.672Z,20.43
2019-05-10T08:19:11.616Z,24.93
2019-05-10T08:22:01.876Z,21.40
2019-05-10T08:24:54.426Z,20.27
2019-05-10T08:27:33.016Z,21.07
2019-05-10T08:30:28.149Z,22.47
2019-05-10T08:33:09.624Z,19.30
2019-05-10T08:36:00.724Z,21.13
2019-05-10T08:38:46.748Z,18.87
2019-05-10T08:41:32.585Z,19.30
2019-05-10T08:44:21.152Z,20.00
2019-05-10T08:47:07.590Z,17.50
2019-05-10T08:50:09.783Z,18.47
2019-05-10T08:52:42.609Z,15.30
2019-05-10T08:55:28.635Z,19.83
2019-05-10T08:58:24.376Z,17.20
2019-05-10T09:01:16.198Z,18.77
2019-05-10T09:03:55.272Z,16.60
2019-05-10T09:06:38.092Z,16.47
2019-05-10T09:09:24.419Z,16.67
2019-05-10T09:12:12.323Z,17.07
2019-05-10T09:15:06.722Z,17.97
2019-05-10T09:17:49.395Z,14.30
2019-05-10T09:20:35.462Z,14.10
2019-05-10T09:23:22.789Z,14.17
2019-05-10T09:26:11.795Z,16.13
2019-05-10T09:28:57.825Z,16.33
2019-05-10T09:31:48.597Z,16.67
2019-05-10T09:34:32.443Z,16.47
2019-05-10T09:37:18.851Z,16.17
2019-05-10T09:40:09.722Z,16.27
2019-05-10T09:42:52.726Z,17.13
2019-05-10T09:45:38.734Z,16.57
2019-05-10T09:48:25.067Z,14.23
2019-05-10T09:51:13.774Z,16.17
2019-05-10T09:54:00.339Z,15.57
2019-05-10T09:56:52.033Z,22.03
2019-05-10T09:59:36.777Z,15.67
2019-05-10T10:02:23.472Z,18.57
2019-05-10T10:05:10.301Z,17.93
2019-05-10T10:07:57.848Z,17.77
2019-05-10T10:10:43.822Z,17.87
2019-05-10T10:13:39.297Z,16.83
2019-05-10T10:16:19.140Z,17.20
2019-05-10T10:19:07.170Z,15.17
2019-05-10T10:21:53.231Z,16.40
2019-05-10T10:24:41.105Z,17.67
2019-05-10T10:27:34.239Z,20.00
2019-05-10T10:30:21.087Z,15.23
2019-05-10T10:33:05.864Z,13.47
2019-05-10T10:35:56.521Z,14.23
2019-05-10T10:38:45.372Z,11.47
2019-05-10T10:41:31.632Z,12.93
2019-05-10T10:44:18.199Z,15.33
2019-05-10T10:47:04.503Z,13.77
2019-05-10T10:49:50.782Z,15.63
2019-05-10T10:52:37.625Z,16.77
2019-05-10T10:55:23.995Z,16.70
2019-05-10T10:58:12.434Z,15.43
2019-05-10T11:00:59.000Z,16.57
2019-05-10T11:03:48.396Z,15.43
2019-05-10T11:06:33.310Z,17.73
2019-05-10T11:09:20.720Z,18.23
2019-05-10T11:12:07.115Z,17.20
2019-05-10T11:14:53.481Z,16.60
2019-05-10T11:17:41.025Z,15.17
2019-05-10T11:20:27.270Z,16.43
2019-05-10T11:23:16.185Z,13.33
2019-05-10T11:26:01.571Z,20.40
2019-05-10T11:28:47.807Z,14.00
2019-05-10T11:31:33.888Z,14.43
2019-05-10T11:34:21.950Z,11.87
2019-05-10T11:37:08.149Z,11.63
2019-05-10T11:39:54.140Z,13.50
2019-05-10T11:42:43.777Z,13.17
2019-05-10T11:45:34.343Z,10.00
2019-05-10T11:48:16.069Z,7.83
2019-05-10T11:51:05.739Z,9.63
2019-05-10T11:53:55.358Z,10.23
2019-05-10T11:56:40.817Z,9.27
2019-05-10T11:59:27.340Z,7.60
2019-05-10T12:02:33.948Z,7.93
2019-05-10T12:05:10.796Z,8.30
2019-05-10T12:07:51.696Z,7.93
2019-05-10T12:10:43.110Z,11.27
2019-05-10T12:13:25.548Z,9.57
2019-05-10T12:16:16.367Z,9.13
2019-05-10T12:19:07.141Z,8.83
2019-05-10T12:21:47.759Z,9.83
2019-05-10T12:24:52.088Z,7.70
2019-05-10T12:27:28.617Z,7.93
2019-05-10T12:30:11.598Z,11.23
2019-05-10T12:33:05.851Z,12.00
2019-05-10T12:35:47.299Z,10.03
2019-05-10T12:38:35.831Z,8.30
2019-05-10T12:41:23.472Z,5.43
2019-05-10T12:44:11.295Z,6.87
2019-05-10T12:47:01.149Z,6.73
2019-05-10T12:49:46.237Z,6.80
2019-05-10T12:52:32.618Z,5.60
2019-05-10T12:55:19.012Z,3.50
2019-05-10T12:58:05.027Z,4.77
2019-05-10T13:00:53.387Z,5.70
2019-05-10T13:03:39.208Z,5.53
2019-05-10T13:06:25.312Z,5.37
2019-05-10T13:09:14.321Z,5.33
2019-05-10T13:12:04.012Z,4.57
2019-05-10T13:14:52.552Z,5.00
2019-05-10T13:17:35.585Z,5.93
2019-05-10T13:20:21.831Z,10.80
2019-05-10T13:23:09.908Z,5.83
2019-05-10T13:25:56.923Z,6.27
2019-05-10T13:28:43.259Z,5.37
2019-05-10T13:31:32.438Z,7.33
2019-05-10T13:34:18.563Z,6.57
2019-05-10T13:37:04.818Z,6.33
2019-05-10T13:39:50.857Z,5.87
2019-05-10T13:42:43.208Z,5.63
2019-05-10T13:45:24.951Z,6.13
2019-05-10T13:48:11.030Z,5.27
2019-05-10T13:50:57.413Z,4.97
2019-05-10T13:53:44.129Z,5.40
2019-05-10T13:56:30.290Z,5.90
2019-05-10T13:59:18.019Z,5.30
2019-05-10T14:02:04.318Z,5.47
2019-05-10T14:04:50.653Z,6.27
2019-05-10T14:07:39.025Z,5.53
2019-05-10T14:10:25.418Z,6.67
2019-05-10T14:13:11.348Z,7.40
2019-05-10T14:15:57.603Z,4.53
2019-05-10T14:18:43.871Z,5.30
2019-05-10T14:21:29.934Z,5.63
2019-05-10T14:24:16.787Z,6.03
2019-05-10T14:27:03.171Z,5.63
2019-05-10T14:29:49.519Z,5.10
2019-05-10T14:32:38.465Z,5.07
2019-05-10T14:35:25.072Z,6.47
2019-05-10T14:38:11.387Z,5.10
2019-05-10T14:40:57.284Z,4.50
2019-05-10T14:43:43.380Z,5.80
2019-05-10T14:46:29.837Z,7.00
2019-05-10T14:49:16.045Z,6.10
2019-05-10T14:52:02.343Z,6.83
2019-05-10T14:54:55.472Z,4.10
2019-05-10T14:57:38.798Z,4.40
2019-05-10T15:00:25.027Z,4.70
2019-05-10T15:03:11.029Z,4.20
2019-05-10T15:06:01.336Z,6.20
2019-05-10T15:08:45.039Z,4.63
2019-05-10T15:11:31.619Z,6.20
2019-05-10T15:14:18.732Z,4.97
2019-05-10T15:17:07.337Z,4.47
2019-05-10T15:19:57.877Z,5.00
2019-05-10T15:22:41.268Z,5.23
2019-05-10T15:25:27.354Z,5.63
2019-05-10T15:28:13.356Z,6.17
2019-05-10T15:30:59.497Z,8.37
2019-05-10T15:33:45.624Z,7.30
2019-05-10T15:36:31.807Z,5.87
2019-05-10T15:39:23.058Z,5.03
2019-05-10T15:42:05.785Z,5.30
2019-05-10T15:44:51.793Z,5.37
2019-05-10T15:47:50.027Z,6.50
2019-05-10T15:50:25.700Z,6.93
2019-05-10T15:53:11.970Z,4.23
2019-05-10T15:55:59.021Z,5.10
2019-05-10T15:58:46.059Z,6.73
2019-05-10T16:01:32.211Z,6.57
2019-05-10T16:04:18.386Z,4.10
2019-05-10T16:07:09.361Z,4.37
2019-05-10T16:09:54.800Z,7.13
2019-05-10T16:12:43.049Z,5.70
2019-05-10T16:15:28.320Z,5.10
2019-05-10T16:18:14.835Z,5.00
2019-05-10T16:21:01.133Z,4.77
2019-05-10T16:23:48.360Z,6.10
2019-05-10T16:26:34.979Z,5.77
2019-05-10T16:29:22.061Z,5.23
2019-05-10T16:32:08.361Z,4.43
2019-05-10T16:34:54.740Z,5.70
2019-05-10T16:37:41.044Z,5.43
2019-05-10T16:40:27.224Z,5.90
2019-05-10T16:43:18.962Z,5.23
2019-05-10T16:46:01.293Z,6.97
2019-05-10T16:48:47.557Z,5.40
2019-05-10T16:51:33.971Z,5.83
2019-05-10T16:54:25.356Z,7.57
2019-05-10T16:57:08.753Z,6.37
2019-05-10T16:59:55.050Z,7.97
2019-05-10T17:02:42.597Z,7.97
2019-05-10T17:05:32.537Z,9.73
2019-05-10T17:08:18.728Z,8.37
2019-05-10T17:11:09.919Z,8.53
2019-05-10T17:13:55.519Z,8.70
2019-05-10T17:16:43.179Z,10.50
2019-05-10T17:19:34.204Z,9.73
2019-05-10T17:22:17.339Z,11.57
2019-05-10T17:25:05.371Z,11.63
2019-05-10T17:27:57.562Z,9.17
2019-05-10T17:30:44.896Z,11.63
2019-05-10T17:33:36.684Z,12.77
2019-05-10T17:36:25.423Z,9.87
2019-05-10T17:39:11.347Z,11.67
2019-05-10T17:42:02.563Z,10.77
2019-05-10T17:44:45.316Z,11.97
2019-05-10T17:47:32.671Z,8.33
2019-05-10T17:50:19.383Z,7.07
2019-05-10T17:53:05.844Z,10.07
2019-05-10T17:55:55.736Z,9.03
2019-05-10T17:58:39.961Z,8.07
2019-05-10T18:01:25.883Z,9.87
2019-05-10T18:04:11.907Z,11.43
2019-05-10T18:06:58.601Z,10.07
2019-05-10T18:09:44.739Z,8.87
2019-05-10T18:12:30.681Z,10.80
2019-05-10T18:15:16.671Z,12.40
2019-05-10T18:18:04.416Z,10.30
2019-05-10T18:20:50.437Z,9.23
2019-05-10T18:23:36.780Z,11.37
2019-05-10T18:26:22.759Z,14.67
2019-05-10T18:29:08.830Z,11.30
2019-05-10T18:31:57.984Z,11.90
2019-05-10T18:34:43.323Z,10.77
2019-05-10T18:37:29.612Z,9.40
2019-05-10T18:40:15.608Z,9.60
2019-05-10T18:43:04.069Z,7.63
2019-05-10T18:45:49.710Z,6.57
2019-05-10T18:48:35.632Z,6.63
2019-05-10T18:51:24.386Z,6.33
2019-05-10T18:54:09.855Z,7.53
2019-05-10T18:56:55.869Z,8.17
2019-05-10T18:59:45.291Z,7.87
2019-05-10T19:02:30.343Z,7.50
2019-05-10T19:05:16.693Z,6.73
2019-05-10T19:08:05.570Z,7.00
2019-05-10T19:10:50.854Z,7.73
2019-05-10T19:13:47.334Z,11.13
2019-05-10T19:16:31.989Z,8.70
2019-05-10T19:19:16.210Z,7.83
2019-05-10T19:22:03.041Z,8.53
2019-05-10T19:24:50.070Z,15.57
2019-05-10T19:27:38.836Z,9.80
2019-05-10T19:30:24.672Z,8.40
2019-05-10T19:33:10.927Z,8.30
2019-05-10T19:35:56.942Z,8.73
2019-05-10T19:38:43.074Z,7.43
2019-05-10T19:41:29.267Z,7.90
2019-05-10T19:44:15.383Z,9.70
2019-05-10T19:47:01.803Z,12.13
2019-05-10T19:49:51.744Z,12.73
2019-05-10T19:52:35.865Z,18.60
2019-05-10T19:55:22.039Z,13.20
2019-05-10T19:58:08.333Z,11.03
2019-05-10T20:00:55.593Z,10.23
2019-05-10T20:03:41.830Z,10.57
2019-05-10T20:06:28.052Z,11.77
2019-05-10T20:09:14.342Z,9.00
2019-05-10T20:12:00.330Z,8.97
2019-05-10T20:14:48.546Z,9.20
2019-05-10T20:17:34.938Z,9.00
2019-05-10T20:20:21.070Z,8.87
2019-05-10T20:23:07.161Z,8.93
2019-05-10T20:25:53.446Z,11.53
2019-05-10T20:28:39.809Z,10.10
2019-05-10T20:31:26.103Z,9.43
2019-05-10T20:34:12.178Z,8.73
2019-05-10T20:36:58.453Z,11.03
2019-05-10T20:39:44.747Z,10.60
2019-05-10T20:42:31.528Z,11.33
2019-05-10T20:45:17.569Z,11.37
2019-05-10T20:48:03.599Z,12.43
2019-05-10T20:50:49.576Z,13.57
2019-05-10T20:53:35.644Z,11.97
2019-05-10T20:56:21.773Z,11.40
2019-05-10T20:59:07.763Z,9.67
2019-05-10T21:01:54.049Z,9.17
2019-05-10T21:04:40.403Z,10.07
2019-05-10T21:07:29.580Z,10.10
2019-05-10T21:10:15.733Z,10.17
2019-05-10T21:13:02.103Z,11.40
2019-05-10T21:15:48.187Z,9.70
2019-05-10T21:18:37.575Z,9.63
2019-05-10T21:21:23.820Z,12.10
2019-05-10T21:24:09.923Z,9.13
2019-05-10T21:26:56.216Z,9.70
2019-05-10T21:29:43.271Z,9.33
2019-05-10T21:32:29.702Z,9.57
2019-05-10T21:35:18.215Z,9.77
2019-05-10T21:38:04.457Z,9.90
2019-05-10T21:40:50.814Z,10.03
2019-05-10T21:43:36.818Z,9.93
2019-05-10T21:46:25.628Z,9.63
2019-05-10T21:49:12.592Z,9.90
2019-05-10T21:51:59.469Z,11.50
2019-05-10T21:54:45.549Z,10.20
2019-05-10T21:57:31.627Z,11.47
2019-05-10T22:00:19.328Z,11.07
2019-05-10T22:03:05.625Z,14.90
2019-05-10T22:05:52.596Z,10.80
2019-05-10T22:08:49.011Z,11.67
2019-05-10T22:11:26.567Z,11.73
2019-05-10T22:14:12.896Z,10.53
2019-05-10T22:16:59.228Z,10.83
2019-05-10T22:19:45.201Z,10.23
2019-05-10T22:22:31.248Z,11.17
2019-05-10T22:25:17.156Z,11.50
2019-05-10T22:28:03.564Z,10.53
2019-05-10T22:30:49.462Z,10.70
2019-05-10T22:33:35.693Z,10.70
2019-05-10T22:36:21.943Z,10.17
2019-05-10T22:39:08.087Z,10.93
2019-05-10T22:41:59.506Z,11.67
2019-05-10T22:44:45.648Z,10.33
2019-05-10T22:47:32.177Z,10.63
2019-05-10T22:50:18.308Z,12.17
2019-05-10T22:53:04.653Z,10.27
2019-05-10T22:55:50.771Z,10.60
2019-05-10T22:58:39.705Z,12.67
2019-05-10T23:01:28.071Z,11.97
2019-05-10T23:04:14.483Z,14.47
2019-05-10T23:07:00.497Z,11.13
2019-05-10T23:09:48.835Z,11.07
2019-05-10T23:12:34.843Z,10.70
2019-05-10T23:15:21.204Z,10.63
2019-05-10T23:18:10.610Z,11.07
2019-05-10T23:20:56.762Z,11.40
2019-05-10T23:23:43.225Z,9.87
2019-05-10T23:26:29.227Z,9.97
2019-05-10T23:29:15.279Z,10.30
2019-05-10T23:32:07.050Z,9.90
2019-05-10T23:34:53.066Z,10.10
2019-05-10T23:37:39.058Z,10.57
2019-05-10T23:40:25.739Z,9.73
2019-05-10T23:43:11.731Z,10.40
2019-05-10T23:45:58.091Z,17.37
2019-05-10T23:48:49.965Z,12.00
2019-05-10T23:51:36.081Z,11.40
2019-05-10T23:54:22.140Z,11.97
2019-05-10T23:57:08.154Z,11.67
2019-05-10T23:59:54.386Z,12.83
